Time;durP1;ratioP1;P1;durP2;ratioP2;P2;SDS_P1;SDS_P2;PMS_P1;PMS_P2;Temp;Humidity;BMP_temperature;BMP_pressure;BME280_temperature;BME280_humidity;BME280_pressure;Samples;Min_cycle;Max_cycle;Signal;HPM_P1;HPM_P2
2023/02/17 00:01:28;;;;;;;20.10;12.43;;;;;;;10.49;95.26;101406.38;4960252;29;20498;-79
2023/02/17 00:03:55;;;;;;;17.88;12.10;;;;;;;10.46;95.28;101401.41;4977077;28;20153;-79
2023/02/17 00:06:25;;;;;;;18.20;12.50;;;;;;;10.48;95.25;101407.34;4978999;28;20074;-78
2023/02/17 00:08:52;;;;;;;20.40;11.63;;;;;;;10.53;95.39;101405.13;4980235;28;20134;-79
2023/02/17 00:11:19;;;;;;;17.92;12.13;;;;;;;10.51;95.16;101405.28;4979930;28;20074;-80
2023/02/17 00:13:46;;;;;;;19.52;12.50;;;;;;;10.48;95.65;101396.88;4980284;28;20119;-79
2023/02/17 00:16:17;;;;;;;21.63;12.15;;;;;;;10.51;95.83;101400.03;4998935;28;20129;-79
2023/02/17 00:18:44;;;;;;;18.88;12.52;;;;;;;10.48;95.98;101389.00;4996884;28;20176;-80
2023/02/17 00:21:12;;;;;;;16.92;11.35;;;;;;;10.51;95.88;101394.81;4992664;28;20050;-79
2023/02/17 00:23:40;;;;;;;16.75;11.38;;;;;;;10.54;96.35;101396.31;4996690;28;20118;-79
2023/02/17 00:26:08;;;;;;;15.60;11.10;;;;;;;10.48;96.36;101389.84;4999182;28;20191;-79
2023/02/17 00:28:35;;;;;;;18.17;11.85;;;;;;;10.42;96.64;101397.41;4992506;28;20078;-79
2023/02/17 00:31:07;;;;;;;14.88;11.30;;;;;;;10.42;96.81;101387.75;4995186;28;20114;-80
2023/02/17 00:33:33;;;;;;;17.87;11.83;;;;;;;10.40;97.18;101381.03;4997552;28;20114;-80
2023/02/17 00:36:03;;;;;;;15.77;11.85;;;;;;;10.48;97.43;101370.69;5001552;28;20144;-79
2023/02/17 00:38:30;;;;;;;13.70;10.80;;;;;;;10.46;97.42;101380.47;4998956;28;20074;-79
2023/02/17 00:40:58;;;;;;;15.93;11.07;;;;;;;10.43;97.41;101370.28;4999431;28;20090;-79
2023/02/17 00:43:25;;;;;;;15.13;11.32;;;;;;;10.41;97.52;101366.97;5001594;28;20057;-80
2023/02/17 00:45:51;;;;;;;16.75;11.57;;;;;;;10.43;97.88;101381.56;5001376;28;20085;-80
2023/02/17 00:48:18;;;;;;;15.43;11.32;;;;;;;10.41;98.16;101387.91;5002632;28;20108;-80
2023/02/17 00:50:45;;;;;;;16.85;11.95;;;;;;;10.38;97.86;101383.78;5002742;28;20054;-79
2023/02/17 00:53:12;;;;;;;16.80;12.50;;;;;;;10.35;98.48;101378.00;5004575;28;20043;-80
2023/02/17 00:55:39;;;;;;;14.80;12.07;;;;;;;10.37;98.56;101376.91;5005064;28;20082;-79
2023/02/17 00:58:07;;;;;;;14.75;11.82;;;;;;;10.35;98.56;101373.59;5005546;28;20126;-79
2023/02/17 01:00:33;;;;;;;15.75;11.93;;;;;;;10.34;98.39;101371.94;5003079;28;20109;-79
2023/02/17 01:03:00;;;;;;;15.60;11.52;;;;;;;10.36;98.77;101374.44;4999097;28;20073;-78
2023/02/17 01:05:26;;;;;;;14.77;11.32;;;;;;;10.36;98.62;101379.66;5000101;28;20097;-80
2023/02/17 01:07:53;;;;;;;14.35;11.77;;;;;;;10.35;98.54;101364.94;4999461;28;20054;-80
2023/02/17 01:10:20;;;;;;;16.27;11.38;;;;;;;10.36;98.59;101383.09;4999810;28;20556;-81
2023/02/17 01:12:49;;;;;;;13.65;10.43;;;;;;;10.35;98.49;101363.13;4999780;28;20096;-80
2023/02/17 01:15:17;;;;;;;15.40;11.00;;;;;;;10.35;98.24;101367.53;5000745;28;20105;-81
2023/02/17 01:17:45;;;;;;;15.35;11.38;;;;;;;10.35;98.67;101357.09;4996969;28;20238;-79
2023/02/17 01:20:12;;;;;;;16.08;12.20;;;;;;;10.41;98.29;101359.13;5001821;28;20106;-79
2023/02/17 01:22:39;;;;;;;16.17;11.18;;;;;;;10.41;98.50;101356.50;5001724;28;20085;-79
2023/02/17 01:25:07;;;;;;;15.23;11.27;;;;;;;10.36;98.34;101351.72;4999903;28;20077;-80
2023/02/17 01:27:33;;;;;;;14.55;10.75;;;;;;;10.36;98.62;101348.28;4993634;28;20133;-80
2023/02/17 01:30:00;;;;;;;13.23;10.63;;;;;;;10.39;98.28;101338.34;5001475;28;20172;-80
2023/02/17 01:32:28;;;;;;;16.23;11.00;;;;;;;10.39;98.47;101345.38;5001083;28;20074;-81
2023/02/17 01:34:55;;;;;;;13.95;10.80;;;;;;;10.36;98.71;101335.19;5000687;28;20114;-80
2023/02/17 01:37:21;;;;;;;16.65;10.57;;;;;;;10.36;98.68;101335.19;5000849;28;20501;-81
2023/02/17 01:39:48;;;;;;;15.75;11.00;;;;;;;10.36;98.58;101332.56;4999854;28;20106;-80
2023/02/17 01:42:16;;;;;;;14.52;10.90;;;;;;;10.35;98.67;101326.50;4988925;28;20074;-81
2023/02/17 01:45:18;;;;;;;15.60;11.77;;;;;;;10.34;98.67;101329.28;4996626;28;20050;-80
2023/02/17 01:47:51;;;;;;;16.55;11.50;;;;;;;10.39;98.94;101329.69;4983240;28;20137;-81
2023/02/17 01:50:22;;;;;;;20.30;12.48;;;;;;;10.42;98.53;101324.97;4999669;28;20129;-81
2023/02/17 01:52:50;;;;;;;15.93;11.13;;;;;;;10.38;98.95;101325.41;5000076;28;20489;-80
2023/02/17 01:55:20;;;;;;;17.50;11.57;;;;;;;10.35;98.95;101318.66;5000416;28;20072;-81
2023/02/17 01:57:48;;;;;;;15.90;11.57;;;;;;;10.41;98.89;101317.25;4999733;28;20114;-81
2023/02/17 02:00:17;;;;;;;17.63;11.65;;;;;;;10.42;98.58;101322.34;4999808;28;20106;-79
2023/02/17 02:02:48;;;;;;;16.65;11.55;;;;;;;10.45;98.79;101318.63;5000878;28;20061;-80
2023/02/17 02:05:17;;;;;;;17.30;12.43;;;;;;;10.48;98.53;101326.22;5000563;28;20050;-81
2023/02/17 02:07:45;;;;;;;14.63;11.45;;;;;;;10.44;98.21;101319.59;5000399;28;20050;-81
2023/02/17 02:10:14;;;;;;;15.52;12.07;;;;;;;10.45;98.64;101311.63;4999443;28;20089;-80
2023/02/17 02:12:43;;;;;;;16.52;12.30;;;;;;;10.47;98.38;101314.91;4998989;28;20070;-80
2023/02/17 02:15:12;;;;;;;16.30;11.82;;;;;;;10.49;98.28;101318.22;4998066;28;20463;-79
2023/02/17 02:17:53;;;;;;;22.80;12.40;;;;;;;10.44;98.83;101315.19;4999415;28;20558;-80
2023/02/17 02:20:35;;;;;;;17.85;12.20;;;;;;;10.46;98.53;101299.38;4993641;28;20128;-79
2023/02/17 02:23:22;;;;;;;17.98;12.57;;;;;;;10.48;98.61;101306.09;4999338;28;20089;-79
2023/02/17 02:26:22;;;;;;;16.17;12.35;;;;;;;10.47;98.57;101298.41;4999755;28;20100;-79
2023/02/17 02:29:08;;;;;;;19.90;12.45;;;;;;;10.52;98.36;101306.66;4991996;28;20148;-79
2023/02/17 02:31:45;;;;;;;14.30;11.43;;;;;;;10.52;98.55;101304.03;4998188;28;20096;-79
2023/02/17 02:34:20;;;;;;;18.33;12.05;;;;;;;10.50;98.36;101300.75;4998990;28;20137;-77
2023/02/17 02:36:51;;;;;;;16.58;12.40;;;;;;;10.45;98.65;101297.72;4998774;28;20109;-79
2023/02/17 02:39:20;;;;;;;16.90;12.55;;;;;;;10.44;98.63;101298.66;4998998;28;20110;-80
2023/02/17 02:41:53;;;;;;;17.05;12.13;;;;;;;10.39;98.91;101306.13;4999633;28;20398;-78
2023/02/17 02:44:21;;;;;;;18.73;11.75;;;;;;;10.40;99.02;101289.47;4999672;28;20129;-79
2023/02/17 02:46:57;;;;;;;17.98;12.80;;;;;;;10.43;98.77;101286.56;4999548;28;20560;-80
2023/02/17 02:49:25;;;;;;;16.98;12.25;;;;;;;10.35;98.79;101289.88;5000008;28;20057;-79
2023/02/17 02:51:58;;;;;;;15.80;11.48;;;;;;;10.43;98.82;101289.16;5000506;28;20141;-80
2023/02/17 02:54:38;;;;;;;16.58;11.68;;;;;;;10.44;98.76;101283.81;5001075;28;20058;-79
2023/02/17 02:57:25;;;;;;;16.92;12.10;;;;;;;10.42;98.60;101279.66;4998775;28;20125;-79
2023/02/17 03:00:04;;;;;;;17.75;12.25;;;;;;;10.36;98.82;101272.41;4993352;28;20069;-79
2023/02/17 03:02:39;;;;;;;18.98;12.20;;;;;;;10.38;99.02;101284.38;5000342;28;20058;-79
2023/02/17 03:05:13;;;;;;;14.68;11.70;;;;;;;10.36;99.05;101283.69;5002524;28;20053;-79
2023/02/17 03:07:44;;;;;;;14.55;11.90;;;;;;;10.37;98.99;101279.28;5001686;28;20093;-79
2023/02/17 03:10:11;;;;;;;15.73;11.98;;;;;;;10.38;99.16;101278.31;5000617;28;20190;-78
2023/02/17 03:12:39;;;;;;;16.92;12.75;;;;;;;10.29;99.51;101280.81;5001654;28;20086;-77
2023/02/17 03:15:13;;;;;;;18.48;12.13;;;;;;;10.35;99.36;101283.84;5000362;28;20074;-77
2023/02/17 03:17:40;;;;;;;17.90;11.98;;;;;;;10.33;99.25;101273.50;4996213;28;20074;-79
2023/02/17 03:20:09;;;;;;;17.95;13.02;;;;;;;10.35;98.97;101268.97;4992440;28;20085;-79
2023/02/17 03:22:39;;;;;;;18.80;11.40;;;;;;;10.36;99.40;101273.22;5001914;28;20054;-78
2023/02/17 03:25:07;;;;;;;15.93;11.80;;;;;;;10.35;99.38;101257.66;5001451;28;20054;-79
2023/02/17 03:27:34;;;;;;;18.85;12.07;;;;;;;10.39;98.91;101264.28;5001292;28;20133;-77
2023/02/17 03:30:00;;;;;;;16.88;11.63;;;;;;;10.43;98.78;101265.63;5001258;28;20511;-78
2023/02/17 03:32:27;;;;;;;16.13;11.70;;;;;;;10.41;98.95;101265.75;5000096;28;20105;-80
2023/02/17 03:34:54;;;;;;;14.02;11.35;;;;;;;10.43;98.50;101265.63;5000146;28;20074;-79
2023/02/17 03:37:22;;;;;;;14.40;11.82;;;;;;;10.42;98.44;101258.75;4999869;28;20051;-79
2023/02/17 03:39:48;;;;;;;18.42;12.63;;;;;;;10.42;98.51;101263.97;4999301;28;20046;-79
2023/02/17 03:42:15;;;;;;;16.40;11.88;;;;;;;10.45;98.80;101268.94;4999379;28;20047;-79
2023/02/17 03:44:41;;;;;;;13.23;11.48;;;;;;;10.39;98.35;101265.09;5000033;28;20050;-80
2023/02/17 03:47:08;;;;;;;14.07;11.23;;;;;;;10.44;98.59;101267.28;4998880;28;20129;-79
2023/02/17 03:49:35;;;;;;;17.17;11.85;;;;;;;10.38;98.58;101257.41;4999479;28;20090;-79
2023/02/17 03:52:01;;;;;;;14.50;11.63;;;;;;;10.43;98.59;101263.00;4999623;28;20122;-79
2023/02/17 03:54:29;;;;;;;15.57;11.25;;;;;;;10.45;97.98;101251.44;5000872;28;20250;-78
2023/02/17 03:56:57;;;;;;;14.88;11.38;;;;;;;10.49;98.32;101246.75;5001397;28;20179;-79
2023/02/17 03:59:24;;;;;;;15.32;11.85;;;;;;;10.55;98.11;101251.44;4999999;28;20050;-80
2023/02/17 04:01:51;;;;;;;18.40;12.20;;;;;;;10.51;97.67;101235.19;4999994;28;20070;-79
2023/02/17 04:04:19;;;;;;;13.38;10.98;;;;;;;10.59;97.62;101252.81;5000139;28;20086;-80
2023/02/17 04:06:46;;;;;;;14.05;11.07;;;;;;;10.58;97.32;101259.00;4999473;28;20050;-79
2023/02/17 04:09:13;;;;;;;13.88;11.23;;;;;;;10.59;97.40;101263.28;4999098;28;20409;-78
2023/02/17 04:11:41;;;;;;;16.13;11.35;;;;;;;10.59;97.16;101252.81;5001752;28;20113;-80
2023/02/17 04:14:07;;;;;;;13.52;10.13;;;;;;;10.54;97.26;101247.16;5002787;28;20084;-78
2023/02/17 04:16:34;;;;;;;12.73;11.15;;;;;;;10.56;97.88;101253.09;5006728;28;20089;-78
2023/02/17 04:19:01;;;;;;;15.95;10.48;;;;;;;10.61;97.24;101264.78;5005001;28;20065;-80
2023/02/17 04:21:28;;;;;;;15.32;11.57;;;;;;;10.48;97.38;101239.88;5004391;28;20051;-79
2023/02/17 04:23:54;;;;;;;12.55;10.48;;;;;;;10.46;97.43;101249.66;5002906;28;20069;-79
2023/02/17 04:26:21;;;;;;;14.73;11.63;;;;;;;10.54;97.04;101257.63;5001694;28;20113;-78
2023/02/17 04:28:49;;;;;;;15.43;11.20;;;;;;;10.59;97.34;101266.72;5001766;28;20417;-79
2023/02/17 04:31:16;;;;;;;15.70;11.30;;;;;;;10.56;97.08;101267.00;5000762;28;20050;-79
2023/02/17 04:33:42;;;;;;;14.80;10.88;;;;;;;10.56;97.50;101271.41;5001854;28;20113;-79
2023/02/17 04:36:10;;;;;;;13.93;11.15;;;;;;;10.60;97.30;101272.78;5000528;28;20085;-80
2023/02/17 04:38:37;;;;;;;16.35;11.02;;;;;;;10.59;96.94;101266.72;5000479;28;20054;-78
2023/02/17 04:41:06;;;;;;;16.95;11.75;;;;;;;10.57;96.97;101260.78;4999076;28;20196;-80
2023/02/17 04:43:33;;;;;;;15.00;11.43;;;;;;;10.57;97.09;101258.16;5000382;28;20061;-80
2023/02/17 04:46:01;;;;;;;14.90;11.32;;;;;;;10.59;97.29;101268.50;5000744;28;20168;-79
2023/02/17 04:48:28;;;;;;;13.93;10.93;;;;;;;10.61;97.08;101261.34;5002392;28;20489;-80
2023/02/17 04:50:55;;;;;;;14.93;11.07;;;;;;;10.52;97.20;101254.31;5001989;28;20551;-80
2023/02/17 04:53:21;;;;;;;13.85;11.13;;;;;;;10.49;96.98;101265.06;5001597;28;20141;-79
2023/02/17 04:55:50;;;;;;;14.05;11.55;;;;;;;10.48;97.43;101264.25;5002867;28;20094;-78
2023/02/17 04:58:16;;;;;;;13.70;11.10;;;;;;;10.55;97.07;101274.97;5002559;28;20065;-79
2023/02/17 05:00:43;;;;;;;13.60;11.30;;;;;;;10.52;96.85;101254.31;5001715;28;20153;-79
2023/02/17 05:03:11;;;;;;;14.85;12.00;;;;;;;10.56;96.79;101274.00;5002109;28;20134;-79
2023/02/17 05:05:37;;;;;;;18.48;10.57;;;;;;;10.61;96.68;101271.81;5002069;28;20089;-80
2023/02/17 05:08:05;;;;;;;14.40;10.93;;;;;;;10.59;96.88;101260.66;5002574;28;20082;-80
2023/02/17 05:10:31;;;;;;;13.90;10.88;;;;;;;10.58;96.62;101259.00;5003979;28;20043;-80
2023/02/17 05:12:58;;;;;;;11.90;9.93;;;;;;;10.58;96.82;101279.94;5005448;28;20054;-81
2023/02/17 05:15:24;;;;;;;14.38;10.98;;;;;;;10.58;96.91;101266.84;5005708;28;20054;-80
2023/02/17 05:17:51;;;;;;;13.52;10.90;;;;;;;10.55;96.63;101254.03;5005685;28;20607;-80
2023/02/17 05:20:19;;;;;;;15.13;10.68;;;;;;;10.61;96.60;101269.19;5004453;28;20113;-81
2023/02/17 05:22:46;;;;;;;13.73;11.05;;;;;;;10.60;96.30;101264.91;5004878;28;20093;-81
2023/02/17 05:25:13;;;;;;;13.05;9.88;;;;;;;10.62;96.17;101270.84;5005127;28;20092;-80
2023/02/17 05:27:39;;;;;;;14.30;11.07;;;;;;;10.58;96.43;101259.00;5006230;28;20104;-79
2023/02/17 05:30:07;;;;;;;14.77;10.02;;;;;;;10.63;96.62;101268.09;5008401;28;20085;-79
2023/02/17 05:32:34;;;;;;;13.70;10.15;;;;;;;10.62;96.31;101263.00;5010119;28;20034;-79
2023/02/17 05:35:01;;;;;;;14.65;10.00;;;;;;;10.60;96.29;101257.91;5012891;28;20508;-79
2023/02/17 05:37:29;;;;;;;12.50;9.70;;;;;;;10.61;96.41;101253.50;5015512;28;20327;-79
2023/02/17 05:39:56;;;;;;;11.65;9.48;;;;;;;10.62;96.39;101245.50;5015529;28;20080;-78
2023/02/17 05:42:27;;;;;;;11.32;9.32;;;;;;;10.60;96.27;101238.75;5014885;28;20050;-78
2023/02/17 05:44:54;;;;;;;18.15;9.98;;;;;;;10.62;96.30;101250.72;5014620;28;20050;-78
2023/02/17 05:47:20;;;;;;;11.02;9.07;;;;;;;10.64;96.67;101253.22;5013828;28;20070;-79
2023/02/17 05:49:47;;;;;;;12.75;9.25;;;;;;;10.57;96.53;101246.88;5011296;28;20054;-79
2023/02/17 06:08:53;;;;;;;11.50;9.02;;;;;;;10.50;97.44;101209.97;4875652;29;20128;-82
2023/02/17 06:15:53;;;;;;;;;;;;;;;;;;;;;
2023/02/17 06:18:43;;;;;;;14.48;9.35;;;;;;;10.75;97.83;101249.59;4971797;28;20055;-82
2023/02/17 06:27:33;;;;;;;11.30;8.95;;;;;;;10.81;97.90;101247.25;4969554;23;20058;-79
2023/02/17 06:30:00;;;;;;;14.38;8.45;;;;;;;10.83;97.68;101250.53;4965657;28;20123;-80
2023/02/17 06:32:27;;;;;;;12.27;8.90;;;;;;;10.80;97.89;101247.38;4962488;28;20115;-82
2023/02/17 06:34:55;;;;;;;11.70;9.27;;;;;;;10.84;98.19;101239.13;4963465;29;20075;-81
2023/02/17 06:37:22;;;;;;;13.77;8.52;;;;;;;10.84;98.30;101233.03;4966104;28;20130;-79
2023/02/17 06:39:49;;;;;;;11.60;8.60;;;;;;;10.81;98.41;101226.31;4981804;28;20050;-80
2023/02/17 06:42:16;;;;;;;11.88;9.32;;;;;;;10.79;98.92;101223.00;4982587;28;20078;-78
2023/02/17 06:44:42;;;;;;;16.77;8.80;;;;;;;10.80;98.98;101239.53;4981915;28;20082;-80
2023/02/17 06:47:09;;;;;;;13.13;9.30;;;;;;;10.85;98.82;101246.00;4981733;28;20058;-80
2023/02/17 06:49:39;;;;;;;11.10;8.65;;;;;;;10.83;99.06;101232.22;4978296;28;20089;-81
2023/02/17 06:52:07;;;;;;;11.45;8.48;;;;;;;10.87;99.42;101244.03;4981368;28;20074;-80
2023/02/17 06:54:34;;;;;;;17.88;9.10;;;;;;;10.89;99.14;101247.34;4981199;28;20054;-80
2023/02/17 06:57:01;;;;;;;11.93;9.48;;;;;;;10.88;99.48;101240.44;4981612;28;20046;-80
2023/02/17 06:59:27;;;;;;;13.52;9.43;;;;;;;10.91;99.53;101250.63;4980070;28;20090;-80
2023/02/17 07:01:55;;;;;;;15.05;9.20;;;;;;;10.90;99.44;101248.97;4981214;28;20130;-78
2023/02/17 07:04:21;;;;;;;12.48;8.70;;;;;;;10.93;99.77;101243.47;4981362;28;20088;-79
2023/02/17 07:06:48;;;;;;;12.65;8.48;;;;;;;10.89;99.61;101236.84;4981752;28;20405;-80
2023/02/17 07:09:16;;;;;;;12.75;9.02;;;;;;;10.95;99.47;101225.81;4982379;28;20113;-79
2023/02/17 07:11:44;;;;;;;9.93;8.80;;;;;;;10.96;99.80;101229.25;4981130;28;20157;-79
2023/02/17 07:14:10;;;;;;;12.60;8.75;;;;;;;10.97;99.79;101218.66;4981406;28;20057;-80
2023/02/17 07:16:40;;;;;;;12.13;9.13;;;;;;;10.96;99.23;101226.63;4976791;28;20528;-79
2023/02/17 07:19:07;;;;;;;13.55;9.60;;;;;;;10.96;99.79;101226.63;4980120;28;20133;-80
2023/02/17 07:21:34;;;;;;;11.02;8.88;;;;;;;10.97;99.58;101230.91;4980604;28;20094;-80
2023/02/17 07:24:00;;;;;;;14.35;9.10;;;;;;;11.01;99.45;101228.84;4977422;28;20085;-79
2023/02/17 07:26:28;;;;;;;14.60;9.35;;;;;;;11.05;99.47;101220.53;4980690;28;20081;-81
2023/02/17 07:28:55;;;;;;;12.18;8.80;;;;;;;11.02;99.67;101223.44;4980824;28;20141;-80
2023/02/17 07:31:22;;;;;;;15.63;9.57;;;;;;;11.07;99.67;101225.63;4980633;28;20051;-79
2023/02/17 07:33:49;;;;;;;14.82;10.13;;;;;;;11.00;99.72;101206.22;4980737;28;20047;-81
2023/02/17 07:36:17;;;;;;;13.52;9.80;;;;;;;11.15;99.82;101220.50;4981510;28;20417;-81
2023/02/17 07:38:44;;;;;;;14.77;9.10;;;;;;;11.14;99.59;101213.63;4980095;28;20046;-80
2023/02/17 07:41:13;;;;;;;13.27;9.90;;;;;;;11.20;99.55;101218.28;4981727;28;20179;-80
2023/02/17 07:43:42;;;;;;;14.02;10.35;;;;;;;11.20;99.47;101218.28;4982926;28;20085;-81
2023/02/17 07:46:13;;;;;;;11.65;9.38;;;;;;;11.21;99.93;101220.75;4984760;28;20054;-83
2023/02/17 07:48:40;;;;;;;12.60;8.80;;;;;;;11.23;99.75;101220.59;4979232;28;20050;-80
2023/02/17 07:51:10;;;;;;;11.55;8.88;;;;;;;11.27;99.68;101219.34;4991108;28;20050;-82
2023/02/17 07:53:40;;;;;;;15.63;9.68;;;;;;;11.26;99.61;101215.91;4980451;28;20031;-82
2023/02/17 07:56:09;;;;;;;18.85;9.27;;;;;;;11.29;99.87;101217.41;4985679;28;20559;-82
2023/02/17 07:58:41;;;;;;;13.50;8.77;;;;;;;11.37;99.52;101229.75;4985071;28;20075;-81
2023/02/17 08:05:33;;;;;;;10.82;9.52;;;;;;;11.47;99.32;101226.09;4974388;28;20082;-82
2023/02/17 08:13:30;;;;;;;10.93;8.18;;;;;;;11.59;99.46;101224.09;4976245;28;20066;-79
2023/02/17 08:15:58;;;;;;;11.93;8.18;;;;;;;11.64;98.97;101225.31;4980208;28;20046;-80
2023/02/17 08:18:24;;;;;;;13.93;8.07;;;;;;;11.67;98.87;101226.00;4983879;28;20109;-79
2023/02/17 08:20:51;;;;;;;13.32;8.02;;;;;;;11.69;98.63;101240.59;4977519;28;20051;-80
2023/02/17 08:23:21;;;;;;;10.27;8.32;;;;;;;11.63;98.79;101238.56;4985257;28;20061;-78
2023/02/17 08:25:48;;;;;;;12.32;7.90;;;;;;;11.62;98.83;101240.38;4984437;28;20054;-82
2023/02/17 08:28:16;;;;;;;9.63;7.60;;;;;;;11.70;98.55;101242.25;4984349;28;20435;-79
2023/02/17 08:30:43;;;;;;;11.73;8.05;;;;;;;11.68;98.45;101243.38;4984949;28;20047;-79
2023/02/17 08:33:09;;;;;;;10.85;8.82;;;;;;;11.76;98.43;101235.59;4986228;28;20078;-83
2023/02/17 08:35:36;;;;;;;11.00;8.00;;;;;;;11.74;98.39;101230.50;4977747;28;20552;-79
2023/02/17 08:38:02;;;;;;;9.40;7.55;;;;;;;11.78;98.21;101245.00;4982692;28;20105;-80
2023/02/17 08:40:30;;;;;;;8.57;7.68;;;;;;;11.78;98.07;101223.19;4983423;28;20114;-79
2023/02/17 08:42:57;;;;;;;10.60;7.57;;;;;;;11.88;97.83;101242.28;4968344;28;20055;-80
2023/02/17 08:45:24;;;;;;;9.27;7.43;;;;;;;11.88;97.63;101234.41;4982169;28;20081;-79
2023/02/17 08:47:51;;;;;;;9.13;7.72;;;;;;;11.91;97.65;101234.94;4982317;28;20057;-80
2023/02/17 08:50:18;;;;;;;9.90;7.05;;;;;;;11.93;97.39;101238.22;4981566;28;20126;-78
2023/02/17 08:52:45;;;;;;;21.02;8.23;;;;;;;12.02;97.45;101241.75;4976080;28;20094;-79
2023/02/17 08:55:12;;;;;;;11.85;7.80;;;;;;;12.01;97.21;101242.72;4980257;28;20198;-79
2023/02/17 08:57:40;;;;;;;9.75;7.25;;;;;;;12.12;96.87;101246.94;4983450;28;20086;-79
2023/02/17 09:00:09;;;;;;;10.90;7.50;;;;;;;12.12;96.65;101221.53;4983522;28;20078;-80
2023/02/17 09:02:36;;;;;;;9.27;7.35;;;;;;;12.18;96.35;101226.16;4981475;28;20089;-80
2023/02/17 09:05:03;;;;;;;10.15;7.18;;;;;;;12.26;96.20;101236.72;4982531;28;20460;-78
2023/02/17 09:07:30;;;;;;;12.40;7.07;;;;;;;12.33;95.81;101230.84;4987268;28;20051;-80
2023/02/17 09:09:56;;;;;;;38.33;9.52;;;;;;;12.37;95.53;101225.13;4978326;28;20133;-79
2023/02/17 09:12:23;;;;;;;10.95;6.90;;;;;;;12.47;95.22;101227.69;4987563;28;20035;-82
2023/02/17 09:14:51;;;;;;;12.55;6.78;;;;;;;12.51;94.95;101229.84;4984816;28;20051;-80
2023/02/17 09:17:18;;;;;;;9.27;6.30;;;;;;;12.64;94.49;101242.56;4981737;28;20054;-80
2023/02/17 09:19:45;;;;;;;11.15;6.45;;;;;;;12.69;94.23;101242.94;4980737;28;20146;-76
2023/02/17 09:22:13;;;;;;;9.82;6.47;;;;;;;12.75;93.97;101229.19;4979139;28;20138;-77
2023/02/17 09:24:40;;;;;;;12.43;6.50;;;;;;;12.84;93.31;101238.72;4976323;28;20055;-77
2023/02/17 09:27:07;;;;;;;10.13;6.18;;;;;;;12.85;92.79;101235.13;4981646;28;20046;-75
2023/02/17 09:29:34;;;;;;;7.88;6.03;;;;;;;12.84;92.84;101227.41;4980422;28;20061;-77
2023/02/17 09:32:11;;;;;;;13.70;6.47;;;;;;;12.94;92.24;101231.56;4982072;28;20042;-78
2023/02/17 09:34:51;;;;;;;8.38;6.68;;;;;;;13.01;91.91;101228.31;4976509;28;20069;-79
2023/02/17 09:40:01;;;;;;;22.50;8.35;;;;;;;13.08;91.65;101231.97;4957251;29;20055;-77
2023/02/17 09:42:35;;;;;;;9.98;5.57;;;;;;;13.20;91.33;101238.63;4959718;29;20039;-76
2023/02/17 09:48:08;;;;;;;13.30;6.45;;;;;;;13.27;90.73;101234.34;4968374;28;20055;-78
2023/02/17 09:50:44;;;;;;;11.55;6.00;;;;;;;13.28;90.45;101226.31;4981810;28;20550;-77
2023/02/17 09:53:22;;;;;;;11.85;5.88;;;;;;;13.47;90.14;101243.63;4979153;28;20082;-81
2023/02/17 09:55:54;;;;;;;10.30;6.00;;;;;;;13.64;89.37;101241.06;4984289;28;20054;-78
2023/02/17 09:58:28;;;;;;;7.82;5.60;;;;;;;13.63;89.42;101247.31;4984819;28;20054;-80
2023/02/17 10:01:01;;;;;;;10.02;5.97;;;;;;;13.60;89.40;101245.81;4983937;28;20058;-77
2023/02/17 10:04:03;;;;;;;8.10;5.47;;;;;;;13.67;89.23;101246.00;4986086;28;20066;-79
2023/02/17 10:06:55;;;;;;;9.18;5.43;;;;;;;13.73;88.75;101243.53;4966018;28;20046;-80
2023/02/17 10:09:33;;;;;;;9.55;5.72;;;;;;;13.95;88.39;101219.22;4982337;28;20098;-81
2023/02/17 10:12:08;;;;;;;10.68;5.85;;;;;;;14.09;88.17;101249.34;4983821;28;20050;-81
2023/02/17 10:14:40;;;;;;;9.68;5.38;;;;;;;14.11;87.52;101234.22;4984964;28;20471;-76
2023/02/17 10:17:13;;;;;;;11.68;5.35;;;;;;;14.20;87.71;101246.34;4981990;28;20047;-77
2023/02/17 10:19:47;;;;;;;;;;;;;;;13.99;87.71;101251.28;4983435;28;20119;-79
2023/02/17 10:22:17;;;;;;;9.00;5.65;;;;;;;14.06;87.59;101254.94;4978885;28;19946;-81
2023/02/17 10:24:44;;;;;;;14.73;6.25;;;;;;;13.93;87.69;101251.94;4984893;28;20532;-78
2023/02/17 10:27:24;;;;;;;7.32;5.50;;;;;;;14.15;87.60;101251.31;4984792;28;20394;-79
2023/02/17 10:30:06;;;;;;;8.23;5.32;;;;;;;14.28;87.23;101263.97;4983971;28;20061;-81
2023/02/17 10:32:43;;;;;;;8.05;5.03;;;;;;;14.42;86.88;101257.25;4987863;28;20494;-80
2023/02/17 10:35:17;;;;;;;10.45;5.03;;;;;;;14.48;86.30;101261.84;4985963;28;20114;-81
2023/02/17 10:37:49;;;;;;;8.00;5.05;;;;;;;14.51;86.33;101256.25;4984895;28;20055;-82
2023/02/17 10:40:19;;;;;;;15.13;5.20;;;;;;;14.56;85.82;101231.06;4985502;28;20078;-77
2023/02/17 10:42:48;;;;;;;10.25;5.05;;;;;;;14.74;86.08;101251.94;4980028;28;20086;-79
2023/02/17 10:45:24;;;;;;;11.13;5.43;;;;;;;14.89;85.48;101265.25;4984344;28;20051;-80
2023/02/17 10:47:59;;;;;;;6.60;4.72;;;;;;;14.84;84.85;101239.41;4982603;28;20074;-77
2023/02/17 10:50:28;;;;;;;9.27;4.80;;;;;;;14.81;84.72;101239.72;4981515;28;20059;-78
2023/02/17 10:52:56;;;;;;;8.88;4.65;;;;;;;14.86;84.78;101239.22;4981708;28;20046;-79
2023/02/17 10:55:32;;;;;;;8.18;5.05;;;;;;;14.78;84.42;101252.41;4982320;28;20054;-79
2023/02/17 10:58:05;;;;;;;11.73;5.00;;;;;;;14.63;84.70;101244.41;4983439;28;20055;-79
2023/02/17 11:00:33;;;;;;;7.28;4.47;;;;;;;14.79;84.92;101260.16;4984179;28;20050;-81
2023/02/17 11:03:03;;;;;;;7.68;4.35;;;;;;;14.83;84.86;101266.72;4984729;28;20043;-81
2023/02/17 11:05:34;;;;;;;6.80;4.60;;;;;;;14.86;84.63;101261.13;4986753;28;20046;-81
2023/02/17 11:08:05;;;;;;;10.27;4.78;;;;;;;14.87;84.78;101254.03;4985191;28;20077;-79
2023/02/17 11:10:37;;;;;;;5.60;4.30;;;;;;;14.83;84.54;101229.03;4987329;28;20093;-81
2023/02/17 11:13:19;;;;;;;7.32;4.15;;;;;;;14.77;84.74;101243.69;4991601;28;20070;-82
2023/02/17 11:15:47;;;;;;;6.68;4.30;;;;;;;14.69;85.31;101240.25;4991884;28;20057;-80
2023/02/17 11:18:21;;;;;;;7.75;4.15;;;;;;;14.68;85.35;101239.44;4993591;28;20070;-81
2023/02/17 11:20:50;;;;;;;7.63;4.07;;;;;;;14.56;85.95;101238.16;4985216;28;20061;-81
2023/02/17 11:23:26;;;;;;;11.77;3.88;;;;;;;14.56;85.99;101240.78;4980700;28;20097;-79
2023/02/17 11:26:03;;;;;;;7.43;4.65;;;;;;;14.73;85.65;101239.75;4985125;28;20050;-80
2023/02/17 11:28:30;;;;;;;12.25;4.70;;;;;;;14.83;85.79;101236.94;4983399;28;20038;-79
2023/02/17 11:30:58;;;;;;;13.77;4.00;;;;;;;14.88;85.42;101239.88;4988474;28;20084;-79
2023/02/17 11:33:31;;;;;;;13.65;4.43;;;;;;;14.98;84.78;101234.41;4988362;28;20547;-78
2023/02/17 11:36:00;;;;;;;7.07;4.18;;;;;;;14.83;84.49;101229.03;4982013;28;20102;-79
2023/02/17 11:38:41;;;;;;;8.20;4.03;;;;;;;14.90;84.67;101225.56;4978570;28;20051;-80
2023/02/17 11:41:09;;;;;;;10.20;4.20;;;;;;;15.00;84.50;101221.91;4984327;28;20398;-80
2023/02/17 11:43:37;;;;;;;10.82;4.28;;;;;;;15.12;84.28;101217.91;4981207;28;20051;-76
2023/02/17 11:46:29;;;;;;;4.65;3.70;;;;;;;15.17;83.33;101199.72;4978253;28;20062;-80
2023/02/17 11:49:18;;;;;;;6.47;3.90;;;;;;;15.33;82.85;101199.66;4980061;28;20082;-80
2023/02/17 11:52:01;;;;;;;5.32;4.03;;;;;;;15.28;82.76;101199.34;4980688;28;20051;-78
2023/02/17 11:54:35;;;;;;;12.60;4.60;;;;;;;15.33;82.47;101194.38;4981877;28;20058;-79
2023/02/17 11:57:17;;;;;;;5.75;3.80;;;;;;;15.29;82.43;101182.53;4980045;28;20130;-78
2023/02/17 12:00:04;;;;;;;7.70;4.07;;;;;;;15.30;82.37;101180.72;4981549;28;20133;-79
2023/02/17 12:02:44;;;;;;;13.15;4.05;;;;;;;15.24;82.79;101196.25;4972444;28;20054;-78
2023/02/17 12:05:22;;;;;;;8.05;4.00;;;;;;;15.14;82.32;101168.44;4982553;28;20038;-78
2023/02/17 12:08:15;;;;;;;8.85;4.28;;;;;;;15.31;82.20;101187.63;4976122;28;20138;-79
2023/02/17 12:10:55;;;;;;;12.20;3.92;;;;;;;15.48;81.95;101197.09;4979160;28;20055;-77
2023/02/17 12:13:32;;;;;;;12.52;4.10;;;;;;;15.66;80.97;101181.84;4986755;28;20186;-79